sensor_id;sensor_type;location;lat;lon;timestamp;temperature;humidity
15819;DHT22;8010;53.986;12.106;2024-01-15T00:01:55;1.90;99.90
15819;DHT22;8010;53.986;12.106;2024-01-15T00:04:20;1.90;99.90
15819;DHT22;8010;53.986;12.106;2024-01-15T00:06:46;1.90;99.90
15819;DHT22;8010;53.986;12.106;2024-01-15T00:09:11;1.90;99.90
15819;DHT22;8010;53.986;12.106;2024-01-15T00:11:37;1.90;99.90
15819;DHT22;8010;53.986;12.106;2024-01-15T00:14:02;1.90;99.90
15819;DHT22;8010;53.986;12.106;2024-01-15T00:16:28;1.90;99.90
15819;DHT22;8010;53.986;12.106;2024-01-15T00:18:54;1.90;99.90
15819;DHT22;8010;53.986;12.106;2024-01-15T00:21:19;1.90;99.90
15819;DHT22;8010;53.986;12.106;2024-01-15T00:23:45;1.90;99.90
15819;DHT22;8010;53.986;12.106;2024-01-15T00:26:11;1.90;99.90
15819;DHT22;8010;53.986;12.106;2024-01-15T00:28:37;1.90;99.90
15819;DHT22;8010;53.986;12.106;2024-01-15T00:31:04;1.90;99.90
15819;DHT22;8010;53.986;12.106;2024-01-15T00:33:30;1.90;99.90
15819;DHT22;8010;53.986;12.106;2024-01-15T00:35:55;1.90;99.90
15819;DHT22;8010;53.986;12.106;2024-01-15T00:38:21;2.00;99.90
15819;DHT22;8010;53.986;12.106;2024-01-15T00:40:46;2.00;99.90
15819;DHT22;8010;53.986;12.106;2024-01-15T00:43:12;2.10;99.90
15819;DHT22;8010;53.986;12.106;2024-01-15T00:45:37;2.10;99.90
15819;DHT22;8010;53.986;12.106;2024-01-15T00:48:04;2.10;99.90
15819;DHT22;8010;53.986;12.106;2024-01-15T00:50:30;2.10;99.90
15819;DHT22;8010;53.986;12.106;2024-01-15T00:52:55;2.20;99.90
15819;DHT22;8010;53.986;12.106;2024-01-15T00:55:21;2.20;99.90
15819;DHT22;8010;53.986;12.106;2024-01-15T00:57:46;2.20;99.90
15819;DHT22;8010;53.986;12.106;2024-01-15T01:00:12;2.20;99.90
15819;DHT22;8010;53.986;12.106;2024-01-15T01:02:38;2.30;99.90
15819;DHT22;8010;53.986;12.106;2024-01-15T01:05:03;2.30;99.90
15819;DHT22;8010;53.986;12.106;2024-01-15T01:07:29;2.20;99.90
15819;DHT22;8010;53.986;12.106;2024-01-15T01:09:55;2.20;99.90
15819;DHT22;8010;53.986;12.106;2024-01-15T01:12:20;2.20;99.90
15819;DHT22;8010;53.986;12.106;2024-01-15T01:14:46;2.30;99.90
15819;DHT22;8010;53.986;12.106;2024-01-15T01:17:11;2.30;99.90
15819;DHT22;8010;53.986;12.106;2024-01-15T01:19:37;2.30;99.90
15819;DHT22;8010;53.986;12.106;2024-01-15T01:22:03;2.30;99.90
15819;DHT22;8010;53.986;12.106;2024-01-15T01:24:29;2.30;99.90
15819;DHT22;8010;53.986;12.106;2024-01-15T01:26:54;2.30;99.90
15819;DHT22;8010;53.986;12.106;2024-01-15T01:29:20;2.30;99.90
15819;DHT22;8010;53.986;12.106;2024-01-15T01:31:45;2.30;99.90
15819;DHT22;8010;53.986;12.106;2024-01-15T01:34:14;2.30;99.90
15819;DHT22;8010;53.986;12.106;2024-01-15T01:36:39;2.30;99.90
15819;DHT22;8010;53.986;12.106;2024-01-15T01:39:05;2.20;99.90
15819;DHT22;8010;53.986;12.106;2024-01-15T01:41:30;2.30;99.90
15819;DHT22;8010;53.986;12.106;2024-01-15T01:43:56;2.10;99.90
15819;DHT22;8010;53.986;12.106;2024-01-15T01:46:23;2.10;99.90
15819;DHT22;8010;53.986;12.106;2024-01-15T01:48:48;2.10;99.90
15819;DHT22;8010;53.986;12.106;2024-01-15T01:51:14;2.10;99.90
15819;DHT22;8010;53.986;12.106;2024-01-15T01:53:40;2.20;99.90
15819;DHT22;8010;53.986;12.106;2024-01-15T01:56:07;2.00;99.90
15819;DHT22;8010;53.986;12.106;2024-01-15T01:58:33;2.00;99.90
15819;DHT22;8010;53.986;12.106;2024-01-15T02:00:59;2.00;99.90
15819;DHT22;8010;53.986;12.106;2024-01-15T02:03:26;2.00;99.90
15819;DHT22;8010;53.986;12.106;2024-01-15T02:05:52;2.00;99.90
15819;DHT22;8010;53.986;12.106;2024-01-15T02:08:18;2.00;99.90
15819;DHT22;8010;53.986;12.106;2024-01-15T02:10:44;2.00;99.90
15819;DHT22;8010;53.986;12.106;2024-01-15T02:13:11;2.10;99.90
15819;DHT22;8010;53.986;12.106;2024-01-15T02:15:36;2.10;99.90
15819;DHT22;8010;53.986;12.106;2024-01-15T02:18:04;2.20;99.90
15819;DHT22;8010;53.986;12.106;2024-01-15T02:20:31;2.20;99.90
15819;DHT22;8010;53.986;12.106;2024-01-15T02:23:10;2.30;99.90
15819;DHT22;8010;53.986;12.106;2024-01-15T02:25:38;2.30;99.90
15819;DHT22;8010;53.986;12.106;2024-01-15T02:28:06;2.30;99.90
15819;DHT22;8010;53.986;12.106;2024-01-15T02:30:32;2.40;99.90
15819;DHT22;8010;53.986;12.106;2024-01-15T02:32:58;2.40;99.90
15819;DHT22;8010;53.986;12.106;2024-01-15T02:35:23;2.50;99.90
15819;DHT22;8010;53.986;12.106;2024-01-15T02:37:49;2.50;99.90
15819;DHT22;8010;53.986;12.106;2024-01-15T02:40:14;2.50;99.90
15819;DHT22;8010;53.986;12.106;2024-01-15T02:42:40;2.50;99.90
15819;DHT22;8010;53.986;12.106;2024-01-15T02:45:05;2.50;99.90
15819;DHT22;8010;53.986;12.106;2024-01-15T02:47:31;2.50;99.90
15819;DHT22;8010;53.986;12.106;2024-01-15T02:49:56;2.50;99.90
15819;DHT22;8010;53.986;12.106;2024-01-15T02:52:22;2.50;99.90
15819;DHT22;8010;53.986;12.106;2024-01-15T02:54:47;2.50;99.90
15819;DHT22;8010;53.986;12.106;2024-01-15T02:57:13;2.50;99.90
15819;DHT22;8010;53.986;12.106;2024-01-15T02:59:38;2.50;99.90
15819;DHT22;8010;53.986;12.106;2024-01-15T03:02:04;2.50;99.90
15819;DHT22;8010;53.986;12.106;2024-01-15T03:04:29;2.50;99.90
15819;DHT22;8010;53.986;12.106;2024-01-15T03:06:55;2.50;99.90
15819;DHT22;8010;53.986;12.106;2024-01-15T03:09:20;2.50;99.90
15819;DHT22;8010;53.986;12.106;2024-01-15T03:11:46;2.60;99.90
15819;DHT22;8010;53.986;12.106;2024-01-15T03:14:12;2.50;99.90
15819;DHT22;8010;53.986;12.106;2024-01-15T03:16:37;2.60;99.90
15819;DHT22;8010;53.986;12.106;2024-01-15T03:19:03;2.60;99.90
15819;DHT22;8010;53.986;12.106;2024-01-15T03:21:28;2.70;99.90
15819;DHT22;8010;53.986;12.106;2024-01-15T03:23:54;2.60;99.90
15819;DHT22;8010;53.986;12.106;2024-01-15T03:26:19;2.60;99.90
15819;DHT22;8010;53.986;12.106;2024-01-15T03:28:45;2.60;99.90
15819;DHT22;8010;53.986;12.106;2024-01-15T03:31:10;2.70;99.90
15819;DHT22;8010;53.986;12.106;2024-01-15T03:33:36;2.60;99.90
15819;DHT22;8010;53.986;12.106;2024-01-15T03:36:01;2.60;99.90
15819;DHT22;8010;53.986;12.106;2024-01-15T03:38:28;2.60;99.90
15819;DHT22;8010;53.986;12.106;2024-01-15T03:40:54;2.50;99.90
15819;DHT22;8010;53.986;12.106;2024-01-15T03:43:19;2.50;99.90
15819;DHT22;8010;53.986;12.106;2024-01-15T03:45:45;2.50;99.90
15819;DHT22;8010;53.986;12.106;2024-01-15T03:48:11;2.50;99.90
15819;DHT22;8010;53.986;12.106;2024-01-15T03:50:36;2.50;99.90
15819;DHT22;8010;53.986;12.106;2024-01-15T03:53:02;2.50;99.90
15819;DHT22;8010;53.986;12.106;2024-01-15T03:55:27;2.50;99.90
15819;DHT22;8010;53.986;12.106;2024-01-15T03:57:53;2.40;99.90
15819;DHT22;8010;53.986;12.106;2024-01-15T04:00:19;2.40;99.90
15819;DHT22;8010;53.986;12.106;2024-01-15T04:02:44;2.40;99.90
15819;DHT22;8010;53.986;12.106;2024-01-15T04:05:10;2.40;99.90
15819;DHT22;8010;53.986;12.106;2024-01-15T04:07:35;2.40;99.90
15819;DHT22;8010;53.986;12.106;2024-01-15T04:10:01;2.40;99.90
15819;DHT22;8010;53.986;12.106;2024-01-15T04:12:27;2.40;99.90
15819;DHT22;8010;53.986;12.106;2024-01-15T04:14:52;2.40;99.90
15819;DHT22;8010;53.986;12.106;2024-01-15T04:17:18;2.40;99.90
15819;DHT22;8010;53.986;12.106;2024-01-15T04:19:44;2.40;99.90
15819;DHT22;8010;53.986;12.106;2024-01-15T04:22:09;2.40;99.90
15819;DHT22;8010;53.986;12.106;2024-01-15T04:24:35;2.40;99.90
15819;DHT22;8010;53.986;12.106;2024-01-15T04:27:00;2.30;99.90
15819;DHT22;8010;53.986;12.106;2024-01-15T04:29:26;2.30;99.90
15819;DHT22;8010;53.986;12.106;2024-01-15T04:31:53;2.20;99.90
15819;DHT22;8010;53.986;12.106;2024-01-15T04:34:18;2.10;99.90
15819;DHT22;8010;53.986;12.106;2024-01-15T04:36:44;2.10;99.90
15819;DHT22;8010;53.986;12.106;2024-01-15T04:39:09;2.10;99.90
15819;DHT22;8010;53.986;12.106;2024-01-15T04:41:36;2.10;99.90
15819;DHT22;8010;53.986;12.106;2024-01-15T04:44:02;2.10;99.90
15819;DHT22;8010;53.986;12.106;2024-01-15T04:46:28;2.20;99.90
15819;DHT22;8010;53.986;12.106;2024-01-15T04:48:54;2.10;99.90
15819;DHT22;8010;53.986;12.106;2024-01-15T04:51:19;2.20;99.90
15819;DHT22;8010;53.986;12.106;2024-01-15T04:53:45;2.20;99.90
15819;DHT22;8010;53.986;12.106;2024-01-15T04:56:10;2.20;99.90
15819;DHT22;8010;53.986;12.106;2024-01-15T04:58:36;2.20;99.90
15819;DHT22;8010;53.986;12.106;2024-01-15T05:01:01;2.20;99.90
15819;DHT22;8010;53.986;12.106;2024-01-15T05:03:27;2.20;99.90
15819;DHT22;8010;53.986;12.106;2024-01-15T05:05:52;2.20;99.90
15819;DHT22;8010;53.986;12.106;2024-01-15T05:08:18;2.30;99.90
15819;DHT22;8010;53.986;12.106;2024-01-15T05:10:43;2.30;99.90
15819;DHT22;8010;53.986;12.106;2024-01-15T05:13:09;2.40;99.90
15819;DHT22;8010;53.986;12.106;2024-01-15T05:15:34;2.40;99.90
15819;DHT22;8010;53.986;12.106;2024-01-15T05:18:00;2.50;99.90
15819;DHT22;8010;53.986;12.106;2024-01-15T05:20:25;2.50;99.90
15819;DHT22;8010;53.986;12.106;2024-01-15T05:22:51;2.50;99.90
15819;DHT22;8010;53.986;12.106;2024-01-15T05:25:16;2.50;99.90
15819;DHT22;8010;53.986;12.106;2024-01-15T05:27:42;2.50;99.90
15819;DHT22;8010;53.986;12.106;2024-01-15T05:30:07;2.50;99.90
15819;DHT22;8010;53.986;12.106;2024-01-15T05:32:33;2.60;99.90
15819;DHT22;8010;53.986;12.106;2024-01-15T05:34:58;2.60;99.90
15819;DHT22;8010;53.986;12.106;2024-01-15T05:37:24;2.60;99.90
15819;DHT22;8010;53.986;12.106;2024-01-15T05:39:49;2.60;99.90
15819;DHT22;8010;53.986;12.106;2024-01-15T05:42:15;2.60;99.90
15819;DHT22;8010;53.986;12.106;2024-01-15T05:44:40;2.60;99.90
15819;DHT22;8010;53.986;12.106;2024-01-15T05:47:06;2.60;99.90
15819;DHT22;8010;53.986;12.106;2024-01-15T05:49:31;2.60;99.90
15819;DHT22;8010;53.986;12.106;2024-01-15T05:51:57;2.60;99.90
15819;DHT22;8010;53.986;12.106;2024-01-15T05:54:22;2.60;99.90
15819;DHT22;8010;53.986;12.106;2024-01-15T05:56:48;2.60;99.90
15819;DHT22;8010;53.986;12.106;2024-01-15T05:59:13;2.60;99.90
15819;DHT22;8010;53.986;12.106;2024-01-15T06:01:39;2.60;99.90
15819;DHT22;8010;53.986;12.106;2024-01-15T06:04:04;2.70;99.90
15819;DHT22;8010;53.986;12.106;2024-01-15T06:06:30;2.70;99.90
15819;DHT22;8010;53.986;12.106;2024-01-15T06:08:56;2.70;99.90
15819;DHT22;8010;53.986;12.106;2024-01-15T06:11:29;2.70;99.90
15819;DHT22;8010;53.986;12.106;2024-01-15T06:13:55;2.70;99.90
15819;DHT22;8010;53.986;12.106;2024-01-15T06:16:20;2.70;99.90
15819;DHT22;8010;53.986;12.106;2024-01-15T06:18:47;2.70;99.90
15819;DHT22;8010;53.986;12.106;2024-01-15T06:21:12;2.70;99.90
15819;DHT22;8010;53.986;12.106;2024-01-15T06:23:39;2.60;99.90
15819;DHT22;8010;53.986;12.106;2024-01-15T06:26:05;2.60;99.90
15819;DHT22;8010;53.986;12.106;2024-01-15T06:28:31;2.60;99.90
15819;DHT22;8010;53.986;12.106;2024-01-15T06:30:57;2.60;99.90
15819;DHT22;8010;53.986;12.106;2024-01-15T06:33:23;2.60;99.90
15819;DHT22;8010;53.986;12.106;2024-01-15T06:35:48;2.60;99.90
15819;DHT22;8010;53.986;12.106;2024-01-15T06:38:14;2.60;99.90
15819;DHT22;8010;53.986;12.106;2024-01-15T06:40:40;2.60;99.90
15819;DHT22;8010;53.986;12.106;2024-01-15T06:43:11;2.70;99.90
15819;DHT22;8010;53.986;12.106;2024-01-15T06:45:36;2.70;99.90
15819;DHT22;8010;53.986;12.106;2024-01-15T06:48:02;2.70;99.90
15819;DHT22;8010;53.986;12.106;2024-01-15T06:50:27;2.70;99.90
15819;DHT22;8010;53.986;12.106;2024-01-15T06:52:53;2.60;99.90
15819;DHT22;8010;53.986;12.106;2024-01-15T06:55:18;2.60;99.90
15819;DHT22;8010;53.986;12.106;2024-01-15T06:57:44;2.60;99.90
15819;DHT22;8010;53.986;12.106;2024-01-15T07:00:10;2.50;99.90
15819;DHT22;8010;53.986;12.106;2024-01-15T07:02:35;2.50;99.90
15819;DHT22;8010;53.986;12.106;2024-01-15T07:05:01;2.50;99.90
15819;DHT22;8010;53.986;12.106;2024-01-15T07:07:26;2.40;99.90
15819;DHT22;8010;53.986;12.106;2024-01-15T07:09:55;2.40;99.90
15819;DHT22;8010;53.986;12.106;2024-01-15T07:12:20;2.30;99.90
15819;DHT22;8010;53.986;12.106;2024-01-15T07:14:46;2.30;99.90
15819;DHT22;8010;53.986;12.106;2024-01-15T07:17:11;2.30;99.90
15819;DHT22;8010;53.986;12.106;2024-01-15T07:19:37;2.30;99.90
15819;DHT22;8010;53.986;12.106;2024-01-15T07:22:02;2.30;99.90
15819;DHT22;8010;53.986;12.106;2024-01-15T07:24:28;2.30;99.90
15819;DHT22;8010;53.986;12.106;2024-01-15T07:26:53;2.30;99.90
15819;DHT22;8010;53.986;12.106;2024-01-15T07:29:19;2.30;99.90
15819;DHT22;8010;53.986;12.106;2024-01-15T07:31:49;2.30;99.90
15819;DHT22;8010;53.986;12.106;2024-01-15T07:34:15;2.20;99.90
15819;DHT22;8010;53.986;12.106;2024-01-15T07:36:43;2.30;99.90
15819;DHT22;8010;53.986;12.106;2024-01-15T07:39:09;2.30;99.90
15819;DHT22;8010;53.986;12.106;2024-01-15T07:41:34;2.20;99.90
15819;DHT22;8010;53.986;12.106;2024-01-15T07:44:00;2.30;99.90
15819;DHT22;8010;53.986;12.106;2024-01-15T07:46:25;2.30;99.90
15819;DHT22;8010;53.986;12.106;2024-01-15T07:48:51;2.30;99.90
15819;DHT22;8010;53.986;12.106;2024-01-15T07:51:22;2.30;99.90
15819;DHT22;8010;53.986;12.106;2024-01-15T07:53:47;2.30;99.90
15819;DHT22;8010;53.986;12.106;2024-01-15T07:56:13;2.30;99.90
15819;DHT22;8010;53.986;12.106;2024-01-15T07:58:39;2.30;99.90
15819;DHT22;8010;53.986;12.106;2024-01-15T08:01:04;2.30;99.90
15819;DHT22;8010;53.986;12.106;2024-01-15T08:03:30;2.40;99.90
15819;DHT22;8010;53.986;12.106;2024-01-15T08:05:55;2.40;99.90
15819;DHT22;8010;53.986;12.106;2024-01-15T08:08:23;2.40;99.90
15819;DHT22;8010;53.986;12.106;2024-01-15T08:10:49;2.40;99.90
15819;DHT22;8010;53.986;12.106;2024-01-15T08:13:14;2.40;99.90
15819;DHT22;8010;53.986;12.106;2024-01-15T08:15:41;2.40;99.90
15819;DHT22;8010;53.986;12.106;2024-01-15T08:18:06;2.40;99.90
15819;DHT22;8010;53.986;12.106;2024-01-15T08:20:32;2.40;99.90
15819;DHT22;8010;53.986;12.106;2024-01-15T08:22:58;2.40;99.90
15819;DHT22;8010;53.986;12.106;2024-01-15T08:25:23;2.40;99.90
15819;DHT22;8010;53.986;12.106;2024-01-15T08:27:49;2.40;99.90
15819;DHT22;8010;53.986;12.106;2024-01-15T08:30:14;2.40;99.90
15819;DHT22;8010;53.986;12.106;2024-01-15T08:32:40;2.40;99.90
15819;DHT22;8010;53.986;12.106;2024-01-15T08:35:09;2.40;99.90
15819;DHT22;8010;53.986;12.106;2024-01-15T08:37:34;2.40;99.90
15819;DHT22;8010;53.986;12.106;2024-01-15T08:40:00;2.40;99.90
15819;DHT22;8010;53.986;12.106;2024-01-15T08:42:26;2.40;99.90
15819;DHT22;8010;53.986;12.106;2024-01-15T08:44:51;2.40;99.90
15819;DHT22;8010;53.986;12.106;2024-01-15T08:47:17;2.50;99.90
15819;DHT22;8010;53.986;12.106;2024-01-15T08:49:42;2.50;99.90
15819;DHT22;8010;53.986;12.106;2024-01-15T08:52:10;2.50;99.90
15819;DHT22;8010;53.986;12.106;2024-01-15T08:54:36;2.40;99.90
15819;DHT22;8010;53.986;12.106;2024-01-15T08:57:01;2.40;99.90
15819;DHT22;8010;53.986;12.106;2024-01-15T08:59:27;2.40;99.90
15819;DHT22;8010;53.986;12.106;2024-01-15T09:01:52;2.40;99.90
15819;DHT22;8010;53.986;12.106;2024-01-15T09:04:18;2.40;99.90
15819;DHT22;8010;53.986;12.106;2024-01-15T09:06:45;2.40;99.90
15819;DHT22;8010;53.986;12.106;2024-01-15T09:09:14;2.40;99.90
15819;DHT22;8010;53.986;12.106;2024-01-15T09:11:42;2.40;99.90
15819;DHT22;8010;53.986;12.106;2024-01-15T09:14:08;2.30;99.90
15819;DHT22;8010;53.986;12.106;2024-01-15T09:16:34;2.40;99.90
15819;DHT22;8010;53.986;12.106;2024-01-15T09:19:00;2.30;99.90
15819;DHT22;8010;53.986;12.106;2024-01-15T09:21:26;2.30;99.90
15819;DHT22;8010;53.986;12.106;2024-01-15T09:23:51;2.20;99.90
15819;DHT22;8010;53.986;12.106;2024-01-15T09:26:17;2.10;99.90
15819;DHT22;8010;53.986;12.106;2024-01-15T09:28:43;2.00;99.90
15819;DHT22;8010;53.986;12.106;2024-01-15T09:31:08;1.90;99.90
15819;DHT22;8010;53.986;12.106;2024-01-15T09:33:34;1.80;99.90
15819;DHT22;8010;53.986;12.106;2024-01-15T09:36:03;1.70;99.90
15819;DHT22;8010;53.986;12.106;2024-01-15T09:38:29;1.70;99.90
15819;DHT22;8010;53.986;12.106;2024-01-15T09:40:55;1.70;99.90
15819;DHT22;8010;53.986;12.106;2024-01-15T09:43:21;1.80;99.90
15819;DHT22;8010;53.986;12.106;2024-01-15T09:45:47;1.80;99.90
15819;DHT22;8010;53.986;12.106;2024-01-15T09:48:14;1.80;99.90
15819;DHT22;8010;53.986;12.106;2024-01-15T09:50:40;1.80;99.90
15819;DHT22;8010;53.986;12.106;2024-01-15T09:53:05;1.80;99.90
15819;DHT22;8010;53.986;12.106;2024-01-15T09:55:32;1.80;99.90
15819;DHT22;8010;53.986;12.106;2024-01-15T09:58:00;1.80;99.90
15819;DHT22;8010;53.986;12.106;2024-01-15T10:00:26;1.80;99.90
15819;DHT22;8010;53.986;12.106;2024-01-15T10:02:52;1.80;99.90
15819;DHT22;8010;53.986;12.106;2024-01-15T10:05:18;1.80;99.90
15819;DHT22;8010;53.986;12.106;2024-01-15T10:07:45;1.80;99.90
15819;DHT22;8010;53.986;12.106;2024-01-15T10:10:12;1.90;99.90
15819;DHT22;8010;53.986;12.106;2024-01-15T10:12:39;1.90;99.90
15819;DHT22;8010;53.986;12.106;2024-01-15T10:15:05;1.90;99.90
15819;DHT22;8010;53.986;12.106;2024-01-15T10:17:30;1.90;99.90
15819;DHT22;8010;53.986;12.106;2024-01-15T10:19:57;1.90;99.90
15819;DHT22;8010;53.986;12.106;2024-01-15T10:22:22;1.90;99.90
15819;DHT22;8010;53.986;12.106;2024-01-15T10:24:48;1.90;99.90
15819;DHT22;8010;53.986;12.106;2024-01-15T10:27:14;1.80;99.90
15819;DHT22;8010;53.986;12.106;2024-01-15T10:29:41;1.80;99.90
15819;DHT22;8010;53.986;12.106;2024-01-15T10:32:08;1.80;99.90
15819;DHT22;8010;53.986;12.106;2024-01-15T10:34:37;1.80;99.90
15819;DHT22;8010;53.986;12.106;2024-01-15T10:37:03;1.80;99.90
15819;DHT22;8010;53.986;12.106;2024-01-15T10:39:29;1.90;99.90
15819;DHT22;8010;53.986;12.106;2024-01-15T10:41:55;1.80;99.90
15819;DHT22;8010;53.986;12.106;2024-01-15T10:44:21;1.80;99.90
15819;DHT22;8010;53.986;12.106;2024-01-15T10:46:47;1.80;99.90
15819;DHT22;8010;53.986;12.106;2024-01-15T10:49:13;1.80;99.90
15819;DHT22;8010;53.986;12.106;2024-01-15T10:51:38;1.80;99.90
15819;DHT22;8010;53.986;12.106;2024-01-15T10:54:05;1.80;99.90
15819;DHT22;8010;53.986;12.106;2024-01-15T10:56:32;1.80;99.90
15819;DHT22;8010;53.986;12.106;2024-01-15T10:59:00;1.80;99.90
15819;DHT22;8010;53.986;12.106;2024-01-15T11:01:26;1.80;99.90
15819;DHT22;8010;53.986;12.106;2024-01-15T11:03:54;1.70;99.90
15819;DHT22;8010;53.986;12.106;2024-01-15T11:06:24;1.70;99.90
15819;DHT22;8010;53.986;12.106;2024-01-15T11:08:51;1.70;99.90
15819;DHT22;8010;53.986;12.106;2024-01-15T11:11:17;1.70;99.90
15819;DHT22;8010;53.986;12.106;2024-01-15T11:13:45;1.70;99.90
15819;DHT22;8010;53.986;12.106;2024-01-15T11:16:13;1.60;99.90
15819;DHT22;8010;53.986;12.106;2024-01-15T11:18:45;1.70;99.90
15819;DHT22;8010;53.986;12.106;2024-01-15T11:21:26;1.70;99.90
15819;DHT22;8010;53.986;12.106;2024-01-15T11:24:00;1.70;99.90
15819;DHT22;8010;53.986;12.106;2024-01-15T11:26:34;1.70;99.90
15819;DHT22;8010;53.986;12.106;2024-01-15T11:29:06;1.70;99.90
15819;DHT22;8010;53.986;12.106;2024-01-15T11:34:07;1.70;99.90
15819;DHT22;8010;53.986;12.106;2024-01-15T11:37:01;1.70;99.90
15819;DHT22;8010;53.986;12.106;2024-01-15T11:41:54;1.70;99.90
15819;DHT22;8010;53.986;12.106;2024-01-15T11:44:21;1.70;99.90
15819;DHT22;8010;53.986;12.106;2024-01-15T11:46:58;1.70;99.90
15819;DHT22;8010;53.986;12.106;2024-01-15T11:52:25;1.70;99.90
15819;DHT22;8010;53.986;12.106;2024-01-15T11:55:14;1.80;99.90
15819;DHT22;8010;53.986;12.106;2024-01-15T11:57:46;1.70;99.90
15819;DHT22;8010;53.986;12.106;2024-01-15T12:00:13;1.70;99.90
15819;DHT22;8010;53.986;12.106;2024-01-15T12:02:43;1.70;99.90
15819;DHT22;8010;53.986;12.106;2024-01-15T12:05:10;1.70;99.90
15819;DHT22;8010;53.986;12.106;2024-01-15T12:07:39;1.60;99.90
15819;DHT22;8010;53.986;12.106;2024-01-15T12:10:09;1.60;99.90
15819;DHT22;8010;53.986;12.106;2024-01-15T12:15:09;1.50;99.90
15819;DHT22;8010;53.986;12.106;2024-01-15T12:17:35;1.50;99.90
15819;DHT22;8010;53.986;12.106;2024-01-15T12:20:04;1.50;99.90
15819;DHT22;8010;53.986;12.106;2024-01-15T12:22:30;1.50;99.90
15819;DHT22;8010;53.986;12.106;2024-01-15T12:24:56;1.50;99.90
15819;DHT22;8010;53.986;12.106;2024-01-15T12:27:23;1.50;99.90
15819;DHT22;8010;53.986;12.106;2024-01-15T12:29:49;1.50;99.90
15819;DHT22;8010;53.986;12.106;2024-01-15T12:32:14;1.50;99.90
15819;DHT22;8010;53.986;12.106;2024-01-15T12:34:40;1.40;99.90
15819;DHT22;8010;53.986;12.106;2024-01-15T12:37:07;1.40;99.90
15819;DHT22;8010;53.986;12.106;2024-01-15T12:39:34;1.40;99.90
15819;DHT22;8010;53.986;12.106;2024-01-15T12:42:01;1.30;99.90
15819;DHT22;8010;53.986;12.106;2024-01-15T12:44:27;1.40;99.90
15819;DHT22;8010;53.986;12.106;2024-01-15T12:46:53;1.40;99.90
15819;DHT22;8010;53.986;12.106;2024-01-15T12:49:19;1.40;99.90
15819;DHT22;8010;53.986;12.106;2024-01-15T12:51:56;1.40;99.90
15819;DHT22;8010;53.986;12.106;2024-01-15T12:54:23;1.40;99.90
15819;DHT22;8010;53.986;12.106;2024-01-15T12:56:49;1.40;99.90
15819;DHT22;8010;53.986;12.106;2024-01-15T12:59:15;1.40;99.90
15819;DHT22;8010;53.986;12.106;2024-01-15T13:01:40;1.40;99.90
15819;DHT22;8010;53.986;12.106;2024-01-15T13:04:07;1.40;99.90
15819;DHT22;8010;53.986;12.106;2024-01-15T13:06:34;1.30;99.90
15819;DHT22;8010;53.986;12.106;2024-01-15T13:09:00;1.30;99.90
15819;DHT22;8010;53.986;12.106;2024-01-15T13:11:26;1.30;99.90
15819;DHT22;8010;53.986;12.106;2024-01-15T13:13:52;1.20;99.90
15819;DHT22;8010;53.986;12.106;2024-01-15T13:16:17;1.20;99.90
15819;DHT22;8010;53.986;12.106;2024-01-15T13:18:43;1.20;99.90
15819;DHT22;8010;53.986;12.106;2024-01-15T13:21:08;1.20;99.90
15819;DHT22;8010;53.986;12.106;2024-01-15T13:23:34;1.20;99.90
15819;DHT22;8010;53.986;12.106;2024-01-15T13:25:59;1.20;99.90
15819;DHT22;8010;53.986;12.106;2024-01-15T13:28:25;1.20;99.90
15819;DHT22;8010;53.986;12.106;2024-01-15T13:30:50;1.20;99.90
15819;DHT22;8010;53.986;12.106;2024-01-15T13:33:16;1.20;99.90
15819;DHT22;8010;53.986;12.106;2024-01-15T13:35:42;1.30;99.90
15819;DHT22;8010;53.986;12.106;2024-01-15T13:38:07;1.20;99.90
15819;DHT22;8010;53.986;12.106;2024-01-15T13:40:34;1.30;99.90
15819;DHT22;8010;53.986;12.106;2024-01-15T13:42:59;1.20;99.90
15819;DHT22;8010;53.986;12.106;2024-01-15T13:45:25;1.20;99.90
15819;DHT22;8010;53.986;12.106;2024-01-15T13:47:50;1.20;99.90
15819;DHT22;8010;53.986;12.106;2024-01-15T13:50:16;1.20;99.90
15819;DHT22;8010;53.986;12.106;2024-01-15T13:52:41;1.10;99.90
15819;DHT22;8010;53.986;12.106;2024-01-15T13:55:07;1.10;99.90
15819;DHT22;8010;53.986;12.106;2024-01-15T13:57:34;1.10;99.90
15819;DHT22;8010;53.986;12.106;2024-01-15T13:59:59;1.10;99.90
15819;DHT22;8010;53.986;12.106;2024-01-15T14:02:25;1.20;99.90
15819;DHT22;8010;53.986;12.106;2024-01-15T14:04:51;1.20;99.90
15819;DHT22;8010;53.986;12.106;2024-01-15T14:07:16;1.20;99.90
15819;DHT22;8010;53.986;12.106;2024-01-15T14:09:42;1.30;99.90
15819;DHT22;8010;53.986;12.106;2024-01-15T14:12:07;1.30;99.90
15819;DHT22;8010;53.986;12.106;2024-01-15T14:14:33;1.40;99.90
15819;DHT22;8010;53.986;12.106;2024-01-15T14:16:58;1.30;99.90
15819;DHT22;8010;53.986;12.106;2024-01-15T14:19:24;1.30;99.90
15819;DHT22;8010;53.986;12.106;2024-01-15T14:21:49;1.20;99.90
15819;DHT22;8010;53.986;12.106;2024-01-15T14:24:15;1.20;99.90
15819;DHT22;8010;53.986;12.106;2024-01-15T14:26:41;1.20;99.90
15819;DHT22;8010;53.986;12.106;2024-01-15T14:29:07;1.10;99.90
15819;DHT22;8010;53.986;12.106;2024-01-15T14:31:32;1.10;99.90
15819;DHT22;8010;53.986;12.106;2024-01-15T14:33:59;1.10;99.90
15819;DHT22;8010;53.986;12.106;2024-01-15T14:36:25;1.10;99.90
15819;DHT22;8010;53.986;12.106;2024-01-15T14:38:51;1.10;99.90
15819;DHT22;8010;53.986;12.106;2024-01-15T14:41:16;1.00;99.90
15819;DHT22;8010;53.986;12.106;2024-01-15T14:43:44;1.00;99.90
15819;DHT22;8010;53.986;12.106;2024-01-15T14:46:10;0.90;99.90
15819;DHT22;8010;53.986;12.106;2024-01-15T14:48:36;0.90;99.90
15819;DHT22;8010;53.986;12.106;2024-01-15T14:51:02;0.90;99.90
15819;DHT22;8010;53.986;12.106;2024-01-15T14:53:28;0.90;99.90
15819;DHT22;8010;53.986;12.106;2024-01-15T14:55:54;0.90;99.90
15819;DHT22;8010;53.986;12.106;2024-01-15T14:58:19;0.90;99.90
15819;DHT22;8010;53.986;12.106;2024-01-15T15:00:45;0.80;99.90
15819;DHT22;8010;53.986;12.106;2024-01-15T15:03:11;0.80;99.90
15819;DHT22;8010;53.986;12.106;2024-01-15T15:05:39;0.80;99.90
15819;DHT22;8010;53.986;12.106;2024-01-15T15:08:04;0.80;99.90
15819;DHT22;8010;53.986;12.106;2024-01-15T15:10:34;0.80;99.90
15819;DHT22;8010;53.986;12.106;2024-01-15T15:13:00;0.80;99.90
15819;DHT22;8010;53.986;12.106;2024-01-15T15:15:26;0.80;99.90
15819;DHT22;8010;53.986;12.106;2024-01-15T15:17:51;0.80;99.90
15819;DHT22;8010;53.986;12.106;2024-01-15T15:20:17;0.80;99.90
15819;DHT22;8010;53.986;12.106;2024-01-15T15:22:44;0.80;99.90
15819;DHT22;8010;53.986;12.106;2024-01-15T15:25:09;0.70;99.90
15819;DHT22;8010;53.986;12.106;2024-01-15T15:27:36;0.70;99.90
15819;DHT22;8010;53.986;12.106;2024-01-15T15:30:02;0.70;99.90
15819;DHT22;8010;53.986;12.106;2024-01-15T15:32:27;0.70;99.90
15819;DHT22;8010;53.986;12.106;2024-01-15T15:34:53;0.70;99.90
15819;DHT22;8010;53.986;12.106;2024-01-15T15:37:19;0.70;99.90
15819;DHT22;8010;53.986;12.106;2024-01-15T15:39:44;0.70;99.90
15819;DHT22;8010;53.986;12.106;2024-01-15T15:42:10;0.70;99.90
15819;DHT22;8010;53.986;12.106;2024-01-15T15:44:35;0.70;99.90
15819;DHT22;8010;53.986;12.106;2024-01-15T15:47:01;0.70;99.90
15819;DHT22;8010;53.986;12.106;2024-01-15T15:49:26;0.70;99.90